Belgrade Nikola Tesla, Serbia

4:10 PM CEST on August 28, 2016 (GMT +0200)
Belgrade | | Change Station

Elev 325 ft 44.82 °N, 20.29 °E | Updated 10 minutes ago

Clear
Clear
86 °F
Feels Like 84 °F
N
6
Wind Variable Wind from SSE

Today
High -- | Low -- °F
--% Chance of Precip.
Yesterday
High -- | Low -- °F
Precip. -- in
Pressure 30.06 in
Visibility -9999.0 miles
Clouds
Heat Index 84 °F
Dew Point 54 °F
Humidity 33%
Rainfall 0.00 in
Snow Depth Not available.
5:56 AM 7:22 PM
Waning Crescent, 15% visible
METAR LYBE 281400Z 15005KT 100V200 CAVOK 30/12 Q1018 NOSIG
Pressure 30.06 in
Visibility -9999.0 miles
Clouds
Heat Index 84 °F
Dew Point 54 °F
Humidity 33%
Rainfall 0.00 in
Snow Depth Not available.
5:56 AM 7:22 PM
Waning Crescent, 15% visible
METAR LYBE 281400Z 15005KT 100V200 CAVOK 30/12 Q1018 NOSIG

10-Day Weather Forecast

×

Almanac

Astronomy

Aug. 28, 2016 Rise Set
Actual Time
Civil Twilight
Nautical Twilight
Astronomical Twilight
Moon
Length of Visible Light
Length of Day
Tomorrow will be .
, % of the Moon is Illuminated

Today's Extremes

Country Highs Country Lows

Community

WunderPhotos

Upload Photos

1,935,569 photos uploaded!

WunderBlog® & News

Nearby

Air Quality

  Air Quality AQ Index Pollutant
Not available.

Snow Depth

Station Depth Elevation

Earthquake Activity

City Distance Mag. Time & Date
Minimum magnitude displayed is 2.5.

Coastal Water Temperatures

Place Temperature

Stations

Nearby Weather Stations

Station Location Temp. Windchill Dew Point Humidity Wind Precip. Elev Updated Type